sensor_id;sensor_type;location;lat;lon;timestamp;P1;durP1;ratioP1;P2;durP2;ratioP2
43519;SDS011;46848;51.980;5.918;2023-08-12T00:01:38;9.00;;;5.55;;
43519;SDS011;46848;51.980;5.918;2023-08-12T00:04:04;12.40;;;6.53;;
43519;SDS011;46848;51.980;5.918;2023-08-12T00:06:30;10.23;;;5.35;;
43519;SDS011;46848;51.980;5.918;2023-08-12T00:08:55;11.10;;;5.15;;
43519;SDS011;46848;51.980;5.918;2023-08-12T00:11:21;10.27;;;5.93;;
43519;SDS011;46848;51.980;5.918;2023-08-12T00:13:47;11.50;;;5.57;;
43519;SDS011;46848;51.980;5.918;2023-08-12T00:16:12;9.88;;;6.07;;
43519;SDS011;46848;51.980;5.918;2023-08-12T00:18:38;9.10;;;5.78;;
43519;SDS011;46848;51.980;5.918;2023-08-12T00:21:07;10.90;;;6.20;;
43519;SDS011;46848;51.980;5.918;2023-08-12T00:23:36;9.65;;;5.47;;
43519;SDS011;46848;51.980;5.918;2023-08-12T00:26:03;8.38;;;4.93;;
43519;SDS011;46848;51.980;5.918;2023-08-12T00:28:29;8.88;;;5.47;;
43519;SDS011;46848;51.980;5.918;2023-08-12T00:30:54;10.07;;;5.75;;
43519;SDS011;46848;51.980;5.918;2023-08-12T00:33:20;12.90;;;6.72;;
43519;SDS011;46848;51.980;5.918;2023-08-12T00:35:45;12.57;;;6.97;;
43519;SDS011;46848;51.980;5.918;2023-08-12T00:38:11;7.85;;;5.70;;
43519;SDS011;46848;51.980;5.918;2023-08-12T00:40:37;10.15;;;5.38;;
43519;SDS011;46848;51.980;5.918;2023-08-12T00:43:02;9.73;;;5.82;;
43519;SDS011;46848;51.980;5.918;2023-08-12T00:45:28;10.50;;;6.10;;
43519;SDS011;46848;51.980;5.918;2023-08-12T00:47:54;9.30;;;4.85;;
43519;SDS011;46848;51.980;5.918;2023-08-12T00:50:20;10.82;;;5.85;;
43519;SDS011;46848;51.980;5.918;2023-08-12T00:52:46;10.57;;;5.93;;
43519;SDS011;46848;51.980;5.918;2023-08-12T00:55:12;12.40;;;6.43;;
43519;SDS011;46848;51.980;5.918;2023-08-12T00:57:38;11.48;;;6.10;;
43519;SDS011;46848;51.980;5.918;2023-08-12T01:00:03;11.90;;;5.95;;
43519;SDS011;46848;51.980;5.918;2023-08-12T01:02:29;11.02;;;6.35;;
43519;SDS011;46848;51.980;5.918;2023-08-12T01:04:55;11.38;;;6.18;;
43519;SDS011;46848;51.980;5.918;2023-08-12T01:07:21;13.80;;;6.45;;
43519;SDS011;46848;51.980;5.918;2023-08-12T01:09:46;13.10;;;6.50;;
43519;SDS011;46848;51.980;5.918;2023-08-12T01:12:13;12.18;;;7.38;;
43519;SDS011;46848;51.980;5.918;2023-08-12T01:17:11;15.98;;;8.07;;
43519;SDS011;46848;51.980;5.918;2023-08-12T01:19:40;12.88;;;6.97;;
43519;SDS011;46848;51.980;5.918;2023-08-12T01:22:07;10.95;;;7.68;;
43519;SDS011;46848;51.980;5.918;2023-08-12T01:24:34;10.70;;;6.68;;
43519;SDS011;46848;51.980;5.918;2023-08-12T01:27:08;11.88;;;7.75;;
43519;SDS011;46848;51.980;5.918;2023-08-12T01:29:36;14.38;;;7.55;;
43519;SDS011;46848;51.980;5.918;2023-08-12T01:35:13;11.57;;;7.78;;
43519;SDS011;46848;51.980;5.918;2023-08-12T01:37:42;10.98;;;7.30;;
43519;SDS011;46848;51.980;5.918;2023-08-12T01:40:09;16.17;;;8.68;;
43519;SDS011;46848;51.980;5.918;2023-08-12T01:42:36;10.95;;;7.30;;
43519;SDS011;46848;51.980;5.918;2023-08-12T01:45:04;12.13;;;6.93;;
43519;SDS011;46848;51.980;5.918;2023-08-12T01:47:30;13.88;;;7.57;;
43519;SDS011;46848;51.980;5.918;2023-08-12T01:49:57;12.23;;;7.50;;
43519;SDS011;46848;51.980;5.918;2023-08-12T01:52:22;13.88;;;9.02;;
43519;SDS011;46848;51.980;5.918;2023-08-12T01:54:48;12.15;;;8.50;;
43519;SDS011;46848;51.980;5.918;2023-08-12T01:57:14;15.13;;;10.20;;
43519;SDS011;46848;51.980;5.918;2023-08-12T01:59:39;12.38;;;8.38;;
43519;SDS011;46848;51.980;5.918;2023-08-12T02:02:05;13.35;;;8.18;;
43519;SDS011;46848;51.980;5.918;2023-08-12T02:04:30;11.23;;;8.77;;
43519;SDS011;46848;51.980;5.918;2023-08-12T02:06:56;12.52;;;8.68;;
43519;SDS011;46848;51.980;5.918;2023-08-12T02:09:22;13.77;;;9.43;;
43519;SDS011;46848;51.980;5.918;2023-08-12T02:11:48;12.07;;;8.38;;
43519;SDS011;46848;51.980;5.918;2023-08-12T02:14:14;12.63;;;10.13;;
43519;SDS011;46848;51.980;5.918;2023-08-12T02:16:40;16.13;;;9.90;;
43519;SDS011;46848;51.980;5.918;2023-08-12T02:19:06;13.23;;;9.18;;
43519;SDS011;46848;51.980;5.918;2023-08-12T02:21:31;14.48;;;9.95;;
43519;SDS011;46848;51.980;5.918;2023-08-12T02:23:57;17.05;;;10.18;;
43519;SDS011;46848;51.980;5.918;2023-08-12T02:26:23;12.85;;;8.82;;
43519;SDS011;46848;51.980;5.918;2023-08-12T02:28:48;16.88;;;10.32;;
43519;SDS011;46848;51.980;5.918;2023-08-12T02:31:15;13.27;;;9.63;;
43519;SDS011;46848;51.980;5.918;2023-08-12T02:33:41;11.95;;;8.95;;
43519;SDS011;46848;51.980;5.918;2023-08-12T02:36:07;12.15;;;9.50;;
43519;SDS011;46848;51.980;5.918;2023-08-12T02:38:33;14.75;;;10.45;;
43519;SDS011;46848;51.980;5.918;2023-08-12T02:40:58;13.23;;;10.73;;
43519;SDS011;46848;51.980;5.918;2023-08-12T02:43:24;12.95;;;10.40;;
43519;SDS011;46848;51.980;5.918;2023-08-12T02:45:50;11.02;;;9.43;;
43519;SDS011;46848;51.980;5.918;2023-08-12T02:48:16;17.58;;;11.70;;
43519;SDS011;46848;51.980;5.918;2023-08-12T02:50:42;15.57;;;11.27;;
43519;SDS011;46848;51.980;5.918;2023-08-12T02:53:07;19.58;;;13.00;;
43519;SDS011;46848;51.980;5.918;2023-08-12T02:55:33;16.77;;;10.98;;
43519;SDS011;46848;51.980;5.918;2023-08-12T02:57:59;15.88;;;11.90;;
43519;SDS011;46848;51.980;5.918;2023-08-12T03:00:25;18.83;;;13.23;;
43519;SDS011;46848;51.980;5.918;2023-08-12T03:02:51;12.88;;;11.50;;
43519;SDS011;46848;51.980;5.918;2023-08-12T03:05:16;14.48;;;11.02;;
43519;SDS011;46848;51.980;5.918;2023-08-12T03:07:42;15.73;;;11.35;;
43519;SDS011;46848;51.980;5.918;2023-08-12T03:10:08;21.65;;;13.65;;
43519;SDS011;46848;51.980;5.918;2023-08-12T03:12:34;16.30;;;12.23;;
43519;SDS011;46848;51.980;5.918;2023-08-12T03:15:00;18.08;;;13.25;;
43519;SDS011;46848;51.980;5.918;2023-08-12T03:17:26;14.23;;;12.38;;
43519;SDS011;46848;51.980;5.918;2023-08-12T03:19:52;17.60;;;13.52;;
43519;SDS011;46848;51.980;5.918;2023-08-12T03:22:19;14.02;;;11.93;;
43519;SDS011;46848;51.980;5.918;2023-08-12T03:24:45;15.48;;;11.43;;
43519;SDS011;46848;51.980;5.918;2023-08-12T03:27:11;14.65;;;11.70;;
43519;SDS011;46848;51.980;5.918;2023-08-12T03:29:36;16.33;;;11.00;;
43519;SDS011;46848;51.980;5.918;2023-08-12T03:32:02;17.73;;;12.23;;
43519;SDS011;46848;51.980;5.918;2023-08-12T03:34:28;15.73;;;11.85;;
43519;SDS011;46848;51.980;5.918;2023-08-12T03:36:57;17.85;;;11.95;;
43519;SDS011;46848;51.980;5.918;2023-08-12T03:39:22;14.98;;;12.05;;
43519;SDS011;46848;51.980;5.918;2023-08-12T03:41:48;16.83;;;12.35;;
43519;SDS011;46848;51.980;5.918;2023-08-12T03:44:15;15.93;;;11.63;;
43519;SDS011;46848;51.980;5.918;2023-08-12T03:46:41;16.48;;;12.38;;
43519;SDS011;46848;51.980;5.918;2023-08-12T03:49:06;16.13;;;11.70;;
43519;SDS011;46848;51.980;5.918;2023-08-12T03:51:32;16.10;;;11.52;;
43519;SDS011;46848;51.980;5.918;2023-08-12T03:53:58;15.73;;;11.85;;
43519;SDS011;46848;51.980;5.918;2023-08-12T03:56:23;15.48;;;11.82;;
43519;SDS011;46848;51.980;5.918;2023-08-12T03:58:49;15.02;;;12.23;;
43519;SDS011;46848;51.980;5.918;2023-08-12T04:01:15;17.95;;;11.55;;
43519;SDS011;46848;51.980;5.918;2023-08-12T04:03:40;18.80;;;12.13;;
43519;SDS011;46848;51.980;5.918;2023-08-12T04:06:06;17.65;;;12.20;;
43519;SDS011;46848;51.980;5.918;2023-08-12T04:08:31;15.00;;;11.02;;
43519;SDS011;46848;51.980;5.918;2023-08-12T04:10:57;14.32;;;11.27;;
43519;SDS011;46848;51.980;5.918;2023-08-12T04:13:23;16.35;;;10.55;;
43519;SDS011;46848;51.980;5.918;2023-08-12T04:15:49;16.70;;;10.70;;
43519;SDS011;46848;51.980;5.918;2023-08-12T04:18:16;17.00;;;12.70;;
43519;SDS011;46848;51.980;5.918;2023-08-12T04:20:41;16.08;;;11.43;;
43519;SDS011;46848;51.980;5.918;2023-08-12T04:23:07;15.57;;;10.40;;
43519;SDS011;46848;51.980;5.918;2023-08-12T04:25:33;13.45;;;10.38;;
43519;SDS011;46848;51.980;5.918;2023-08-12T04:27:58;13.50;;;11.18;;
43519;SDS011;46848;51.980;5.918;2023-08-12T04:30:24;15.77;;;10.75;;
43519;SDS011;46848;51.980;5.918;2023-08-12T04:32:49;12.07;;;10.35;;
43519;SDS011;46848;51.980;5.918;2023-08-12T04:35:15;14.65;;;11.43;;
43519;SDS011;46848;51.980;5.918;2023-08-12T04:37:41;16.88;;;11.88;;
43519;SDS011;46848;51.980;5.918;2023-08-12T04:40:06;16.30;;;10.75;;
43519;SDS011;46848;51.980;5.918;2023-08-12T04:42:33;17.05;;;11.77;;
43519;SDS011;46848;51.980;5.918;2023-08-12T04:44:59;16.42;;;11.77;;
43519;SDS011;46848;51.980;5.918;2023-08-12T04:47:24;14.15;;;10.10;;
43519;SDS011;46848;51.980;5.918;2023-08-12T04:49:50;15.07;;;11.25;;
43519;SDS011;46848;51.980;5.918;2023-08-12T04:52:16;15.57;;;10.80;;
43519;SDS011;46848;51.980;5.918;2023-08-12T04:54:43;15.25;;;10.73;;
43519;SDS011;46848;51.980;5.918;2023-08-12T04:57:08;14.57;;;10.38;;
43519;SDS011;46848;51.980;5.918;2023-08-12T04:59:34;12.93;;;10.05;;
43519;SDS011;46848;51.980;5.918;2023-08-12T05:01:59;16.15;;;11.07;;
43519;SDS011;46848;51.980;5.918;2023-08-12T05:04:25;14.70;;;10.82;;
43519;SDS011;46848;51.980;5.918;2023-08-12T05:06:51;15.48;;;11.18;;
43519;SDS011;46848;51.980;5.918;2023-08-12T05:09:16;13.70;;;11.07;;
43519;SDS011;46848;51.980;5.918;2023-08-12T05:11:42;15.85;;;11.68;;
43519;SDS011;46848;51.980;5.918;2023-08-12T05:14:07;16.65;;;12.90;;
43519;SDS011;46848;51.980;5.918;2023-08-12T05:16:33;14.68;;;11.23;;
43519;SDS011;46848;51.980;5.918;2023-08-12T05:18:59;21.25;;;14.50;;
43519;SDS011;46848;51.980;5.918;2023-08-12T05:21:24;17.48;;;12.80;;
43519;SDS011;46848;51.980;5.918;2023-08-12T05:23:50;21.65;;;13.77;;
43519;SDS011;46848;51.980;5.918;2023-08-12T05:26:15;22.63;;;15.55;;
43519;SDS011;46848;51.980;5.918;2023-08-12T05:28:41;15.05;;;11.75;;
43519;SDS011;46848;51.980;5.918;2023-08-12T05:31:07;15.80;;;12.07;;
43519;SDS011;46848;51.980;5.918;2023-08-12T05:33:33;16.25;;;11.80;;
43519;SDS011;46848;51.980;5.918;2023-08-12T05:35:58;16.65;;;12.98;;
43519;SDS011;46848;51.980;5.918;2023-08-12T05:38:24;19.92;;;14.25;;
43519;SDS011;46848;51.980;5.918;2023-08-12T05:40:49;16.40;;;13.88;;
43519;SDS011;46848;51.980;5.918;2023-08-12T05:43:15;20.15;;;17.05;;
43519;SDS011;46848;51.980;5.918;2023-08-12T05:45:40;16.05;;;14.35;;
43519;SDS011;46848;51.980;5.918;2023-08-12T05:48:07;17.00;;;12.65;;
43519;SDS011;46848;51.980;5.918;2023-08-12T05:50:33;20.48;;;15.45;;
43519;SDS011;46848;51.980;5.918;2023-08-12T05:52:59;17.73;;;14.95;;
43519;SDS011;46848;51.980;5.918;2023-08-12T05:55:24;16.38;;;12.55;;
43519;SDS011;46848;51.980;5.918;2023-08-12T05:57:50;17.23;;;11.63;;
43519;SDS011;46848;51.980;5.918;2023-08-12T06:00:15;18.10;;;11.50;;
43519;SDS011;46848;51.980;5.918;2023-08-12T06:02:41;12.43;;;9.77;;
43519;SDS011;46848;51.980;5.918;2023-08-12T06:05:07;14.45;;;10.70;;
43519;SDS011;46848;51.980;5.918;2023-08-12T06:07:33;20.40;;;11.52;;
43519;SDS011;46848;51.980;5.918;2023-08-12T06:09:58;13.48;;;9.10;;
43519;SDS011;46848;51.980;5.918;2023-08-12T06:12:25;14.75;;;10.25;;
43519;SDS011;46848;51.980;5.918;2023-08-12T06:14:50;15.63;;;9.05;;
43519;SDS011;46848;51.980;5.918;2023-08-12T06:17:16;13.27;;;8.80;;
43519;SDS011;46848;51.980;5.918;2023-08-12T06:19:41;13.25;;;7.68;;
43519;SDS011;46848;51.980;5.918;2023-08-12T06:22:07;13.23;;;8.40;;
43519;SDS011;46848;51.980;5.918;2023-08-12T06:24:32;12.60;;;7.80;;
43519;SDS011;46848;51.980;5.918;2023-08-12T06:26:58;9.80;;;6.75;;
43519;SDS011;46848;51.980;5.918;2023-08-12T06:29:23;9.65;;;6.32;;
43519;SDS011;46848;51.980;5.918;2023-08-12T06:31:49;9.90;;;6.60;;
43519;SDS011;46848;51.980;5.918;2023-08-12T06:34:14;9.95;;;6.40;;
43519;SDS011;46848;51.980;5.918;2023-08-12T06:36:40;9.77;;;5.20;;
43519;SDS011;46848;51.980;5.918;2023-08-12T06:39:06;7.22;;;5.13;;
43519;SDS011;46848;51.980;5.918;2023-08-12T06:41:31;9.68;;;5.38;;
43519;SDS011;46848;51.980;5.918;2023-08-12T06:43:57;7.93;;;4.47;;
43519;SDS011;46848;51.980;5.918;2023-08-12T06:46:22;7.85;;;4.18;;
43519;SDS011;46848;51.980;5.918;2023-08-12T06:48:48;7.75;;;3.90;;
43519;SDS011;46848;51.980;5.918;2023-08-12T06:51:14;5.40;;;3.35;;
43519;SDS011;46848;51.980;5.918;2023-08-12T06:53:39;7.25;;;3.80;;
43519;SDS011;46848;51.980;5.918;2023-08-12T06:56:05;8.80;;;3.65;;
43519;SDS011;46848;51.980;5.918;2023-08-12T06:58:31;7.72;;;3.55;;
43519;SDS011;46848;51.980;5.918;2023-08-12T07:00:56;5.53;;;3.60;;
43519;SDS011;46848;51.980;5.918;2023-08-12T07:03:24;6.82;;;3.63;;
43519;SDS011;46848;51.980;5.918;2023-08-12T07:05:50;7.15;;;3.30;;
43519;SDS011;46848;51.980;5.918;2023-08-12T07:08:15;8.15;;;3.90;;
43519;SDS011;46848;51.980;5.918;2023-08-12T07:10:41;8.63;;;4.05;;
43519;SDS011;46848;51.980;5.918;2023-08-12T07:13:06;7.10;;;4.22;;
43519;SDS011;46848;51.980;5.918;2023-08-12T07:15:32;5.43;;;2.92;;
43519;SDS011;46848;51.980;5.918;2023-08-12T07:17:58;7.72;;;3.70;;
43519;SDS011;46848;51.980;5.918;2023-08-12T07:20:24;6.45;;;3.38;;
43519;SDS011;46848;51.980;5.918;2023-08-12T07:22:50;7.90;;;3.80;;
43519;SDS011;46848;51.980;5.918;2023-08-12T07:25:16;6.90;;;3.97;;
43519;SDS011;46848;51.980;5.918;2023-08-12T07:27:42;8.15;;;3.58;;
43519;SDS011;46848;51.980;5.918;2023-08-12T07:30:08;6.00;;;3.63;;
43519;SDS011;46848;51.980;5.918;2023-08-12T07:32:35;9.07;;;3.70;;
43519;SDS011;46848;51.980;5.918;2023-08-12T07:35:03;6.03;;;4.18;;
43519;SDS011;46848;51.980;5.918;2023-08-12T07:37:30;7.03;;;4.00;;
43519;SDS011;46848;51.980;5.918;2023-08-12T07:39:56;9.50;;;4.95;;
43519;SDS011;46848;51.980;5.918;2023-08-12T07:42:22;8.60;;;4.40;;
43519;SDS011;46848;51.980;5.918;2023-08-12T07:44:48;6.68;;;4.32;;
43519;SDS011;46848;51.980;5.918;2023-08-12T07:47:13;7.28;;;4.28;;
43519;SDS011;46848;51.980;5.918;2023-08-12T07:49:40;8.45;;;5.13;;
43519;SDS011;46848;51.980;5.918;2023-08-12T07:52:06;6.22;;;4.55;;
43519;SDS011;46848;51.980;5.918;2023-08-12T07:54:32;6.95;;;4.25;;
43519;SDS011;46848;51.980;5.918;2023-08-12T07:56:58;7.00;;;4.07;;
43519;SDS011;46848;51.980;5.918;2023-08-12T07:59:23;6.53;;;3.50;;
43519;SDS011;46848;51.980;5.918;2023-08-12T08:01:49;6.45;;;3.65;;
43519;SDS011;46848;51.980;5.918;2023-08-12T08:04:14;5.38;;;3.30;;
43519;SDS011;46848;51.980;5.918;2023-08-12T08:06:40;4.03;;;2.88;;
43519;SDS011;46848;51.980;5.918;2023-08-12T08:09:05;5.90;;;3.08;;
43519;SDS011;46848;51.980;5.918;2023-08-12T08:11:31;4.78;;;3.03;;
43519;SDS011;46848;51.980;5.918;2023-08-12T08:13:57;6.35;;;2.95;;
43519;SDS011;46848;51.980;5.918;2023-08-12T08:16:23;4.07;;;2.53;;
43519;SDS011;46848;51.980;5.918;2023-08-12T08:18:49;3.50;;;2.22;;
43519;SDS011;46848;51.980;5.918;2023-08-12T08:21:15;4.03;;;2.05;;
43519;SDS011;46848;51.980;5.918;2023-08-12T08:23:41;3.65;;;2.20;;
43519;SDS011;46848;51.980;5.918;2023-08-12T08:26:07;4.10;;;2.10;;
43519;SDS011;46848;51.980;5.918;2023-08-12T08:28:34;2.35;;;1.70;;
43519;SDS011;46848;51.980;5.918;2023-08-12T08:30:59;3.08;;;2.03;;
43519;SDS011;46848;51.980;5.918;2023-08-12T08:33:25;4.13;;;2.20;;
43519;SDS011;46848;51.980;5.918;2023-08-12T08:35:51;3.53;;;2.15;;
43519;SDS011;46848;51.980;5.918;2023-08-12T08:38:18;3.13;;;1.90;;
43519;SDS011;46848;51.980;5.918;2023-08-12T08:40:43;3.45;;;2.30;;
43519;SDS011;46848;51.980;5.918;2023-08-12T08:43:09;3.97;;;2.30;;
43519;SDS011;46848;51.980;5.918;2023-08-12T08:45:35;3.55;;;2.08;;
43519;SDS011;46848;51.980;5.918;2023-08-12T08:48:02;2.90;;;1.90;;
43519;SDS011;46848;51.980;5.918;2023-08-12T08:50:30;3.53;;;2.00;;
43519;SDS011;46848;51.980;5.918;2023-08-12T08:52:56;2.33;;;1.60;;
43519;SDS011;46848;51.980;5.918;2023-08-12T08:55:23;2.58;;;1.73;;
43519;SDS011;46848;51.980;5.918;2023-08-12T08:57:49;3.47;;;2.05;;
43519;SDS011;46848;51.980;5.918;2023-08-12T09:00:16;2.65;;;1.50;;
43519;SDS011;46848;51.980;5.918;2023-08-12T09:02:48;3.25;;;1.63;;
43519;SDS011;46848;51.980;5.918;2023-08-12T09:05:15;2.40;;;1.65;;
43519;SDS011;46848;51.980;5.918;2023-08-12T09:07:42;3.65;;;1.38;;
43519;SDS011;46848;51.980;5.918;2023-08-12T09:10:12;2.58;;;1.70;;
43519;SDS011;46848;51.980;5.918;2023-08-12T09:12:37;1.80;;;1.25;;
43519;SDS011;46848;51.980;5.918;2023-08-12T09:15:04;2.05;;;1.30;;
43519;SDS011;46848;51.980;5.918;2023-08-12T09:17:31;3.08;;;1.58;;
43519;SDS011;46848;51.980;5.918;2023-08-12T09:19:57;2.33;;;1.35;;
43519;SDS011;46848;51.980;5.918;2023-08-12T09:22:26;1.73;;;1.20;;
43519;SDS011;46848;51.980;5.918;2023-08-12T09:24:58;1.70;;;1.27;;
43519;SDS011;46848;51.980;5.918;2023-08-12T09:27:24;2.40;;;1.55;;
43519;SDS011;46848;51.980;5.918;2023-08-12T09:29:50;1.58;;;0.93;;
43519;SDS011;46848;51.980;5.918;2023-08-12T09:32:24;2.72;;;1.40;;
43519;SDS011;46848;51.980;5.918;2023-08-12T09:37:16;0.90;;;0.80;;
43519;SDS011;46848;51.980;5.918;2023-08-12T09:39:43;1.80;;;0.98;;
43519;SDS011;46848;51.980;5.918;2023-08-12T09:42:10;0.60;;;0.50;;
43519;SDS011;46848;51.980;5.918;2023-08-12T09:44:36;0.98;;;0.75;;
43519;SDS011;46848;51.980;5.918;2023-08-12T09:47:03;1.40;;;0.90;;
43519;SDS011;46848;51.980;5.918;2023-08-12T09:49:29;1.48;;;0.90;;
43519;SDS011;46848;51.980;5.918;2023-08-12T09:51:55;0.95;;;0.70;;
43519;SDS011;46848;51.980;5.918;2023-08-12T09:54:22;1.73;;;0.70;;
43519;SDS011;46848;51.980;5.918;2023-08-12T09:56:52;0.88;;;0.68;;
43519;SDS011;46848;51.980;5.918;2023-08-12T09:59:22;1.35;;;0.70;;
43519;SDS011;46848;51.980;5.918;2023-08-12T10:01:49;0.95;;;0.50;;
43519;SDS011;46848;51.980;5.918;2023-08-12T10:04:20;1.10;;;0.65;;
43519;SDS011;46848;51.980;5.918;2023-08-12T10:06:48;1.30;;;0.63;;
43519;SDS011;46848;51.980;5.918;2023-08-12T10:09:15;0.98;;;0.60;;
43519;SDS011;46848;51.980;5.918;2023-08-12T10:11:41;0.75;;;0.47;;
43519;SDS011;46848;51.980;5.918;2023-08-12T10:14:09;1.08;;;0.70;;
43519;SDS011;46848;51.980;5.918;2023-08-12T10:16:35;0.80;;;0.55;;
43519;SDS011;46848;51.980;5.918;2023-08-12T10:19:02;0.95;;;0.65;;
43519;SDS011;46848;51.980;5.918;2023-08-12T10:21:30;0.90;;;0.45;;
43519;SDS011;46848;51.980;5.918;2023-08-12T10:23:57;0.90;;;0.65;;
43519;SDS011;46848;51.980;5.918;2023-08-12T10:26:24;0.68;;;0.50;;
43519;SDS011;46848;51.980;5.918;2023-08-12T10:28:50;0.98;;;0.43;;
43519;SDS011;46848;51.980;5.918;2023-08-12T10:31:16;1.40;;;0.50;;
43519;SDS011;46848;51.980;5.918;2023-08-12T10:33:43;1.02;;;0.40;;
43519;SDS011;46848;51.980;5.918;2023-08-12T10:36:09;1.77;;;0.60;;
43519;SDS011;46848;51.980;5.918;2023-08-12T10:38:35;1.33;;;0.70;;
43519;SDS011;46848;51.980;5.918;2023-08-12T10:41:20;1.85;;;0.77;;
43519;SDS011;46848;51.980;5.918;2023-08-12T10:43:59;2.53;;;0.90;;
43519;SDS011;46848;51.980;5.918;2023-08-12T10:46:30;1.70;;;0.82;;
43519;SDS011;46848;51.980;5.918;2023-08-12T10:49:07;1.55;;;0.98;;
43519;SDS011;46848;51.980;5.918;2023-08-12T10:57:10;3.35;;;1.20;;
43519;SDS011;46848;51.980;5.918;2023-08-12T11:05:01;2.95;;;1.38;;
43519;SDS011;46848;51.980;5.918;2023-08-12T11:10:05;2.28;;;1.33;;
43519;SDS011;46848;51.980;5.918;2023-08-12T11:12:42;2.13;;;0.82;;
43519;SDS011;46848;51.980;5.918;2023-08-12T11:18:13;2.85;;;1.00;;
43519;SDS011;46848;51.980;5.918;2023-08-12T11:20:39;2.22;;;0.90;;
43519;SDS011;46848;51.980;5.918;2023-08-12T11:23:06;3.30;;;0.90;;
43519;SDS011;46848;51.980;5.918;2023-08-12T11:25:33;1.92;;;0.80;;
43519;SDS011;46848;51.980;5.918;2023-08-12T11:28:00;3.47;;;1.00;;
43519;SDS011;46848;51.980;5.918;2023-08-12T11:30:26;3.60;;;0.82;;
43519;SDS011;46848;51.980;5.918;2023-08-12T11:32:52;2.72;;;0.93;;
43519;SDS011;46848;51.980;5.918;2023-08-12T11:35:21;4.45;;;1.13;;
43519;SDS011;46848;51.980;5.918;2023-08-12T11:37:48;2.78;;;0.80;;
43519;SDS011;46848;51.980;5.918;2023-08-12T11:40:17;2.28;;;0.80;;
43519;SDS011;46848;51.980;5.918;2023-08-12T11:42:44;2.97;;;1.00;;
43519;SDS011;46848;51.980;5.918;2023-08-12T11:45:11;4.00;;;1.33;;
43519;SDS011;46848;51.980;5.918;2023-08-12T11:47:38;3.40;;;1.10;;
43519;SDS011;46848;51.980;5.918;2023-08-12T11:50:05;2.70;;;1.08;;
43519;SDS011;46848;51.980;5.918;2023-08-12T11:52:31;3.47;;;1.38;;
43519;SDS011;46848;51.980;5.918;2023-08-12T11:54:57;4.65;;;1.17;;
43519;SDS011;46848;51.980;5.918;2023-08-12T11:57:23;2.83;;;0.90;;
43519;SDS011;46848;51.980;5.918;2023-08-12T11:59:50;3.10;;;1.30;;
43519;SDS011;46848;51.980;5.918;2023-08-12T12:02:15;3.63;;;1.05;;
43519;SDS011;46848;51.980;5.918;2023-08-12T12:04:41;2.75;;;1.08;;
43519;SDS011;46848;51.980;5.918;2023-08-12T12:07:17;4.28;;;1.20;;
43519;SDS011;46848;51.980;5.918;2023-08-12T12:09:43;3.88;;;1.10;;
43519;SDS011;46848;51.980;5.918;2023-08-12T12:12:09;3.10;;;1.10;;
43519;SDS011;46848;51.980;5.918;2023-08-12T12:14:35;5.00;;;1.40;;
43519;SDS011;46848;51.980;5.918;2023-08-12T12:17:01;5.55;;;1.67;;
43519;SDS011;46848;51.980;5.918;2023-08-12T12:19:33;3.28;;;1.02;;
43519;SDS011;46848;51.980;5.918;2023-08-12T12:22:01;3.33;;;1.20;;
43519;SDS011;46848;51.980;5.918;2023-08-12T12:24:29;3.53;;;1.25;;
43519;SDS011;46848;51.980;5.918;2023-08-12T12:26:55;4.88;;;1.35;;
43519;SDS011;46848;51.980;5.918;2023-08-12T12:29:21;3.72;;;0.95;;
43519;SDS011;46848;51.980;5.918;2023-08-12T12:31:47;4.03;;;1.40;;
43519;SDS011;46848;51.980;5.918;2023-08-12T12:34:13;6.60;;;1.35;;
43519;SDS011;46848;51.980;5.918;2023-08-12T12:36:39;7.35;;;1.58;;
43519;SDS011;46848;51.980;5.918;2023-08-12T12:39:05;3.55;;;1.38;;
43519;SDS011;46848;51.980;5.918;2023-08-12T12:41:32;5.18;;;1.30;;
43519;SDS011;46848;51.980;5.918;2023-08-12T12:44:01;5.28;;;1.65;;
43519;SDS011;46848;51.980;5.918;2023-08-12T12:46:27;4.45;;;1.40;;
43519;SDS011;46848;51.980;5.918;2023-08-12T12:48:52;4.35;;;1.65;;
43519;SDS011;46848;51.980;5.918;2023-08-12T12:51:18;3.72;;;1.52;;
43519;SDS011;46848;51.980;5.918;2023-08-12T12:53:44;5.32;;;1.52;;
43519;SDS011;46848;51.980;5.918;2023-08-12T12:56:09;3.67;;;1.40;;
43519;SDS011;46848;51.980;5.918;2023-08-12T12:58:35;5.32;;;1.40;;
43519;SDS011;46848;51.980;5.918;2023-08-12T13:04:25;4.28;;;1.30;;
43519;SDS011;46848;51.980;5.918;2023-08-12T13:06:50;4.65;;;1.55;;
43519;SDS011;46848;51.980;5.918;2023-08-12T13:09:16;6.18;;;1.52;;
43519;SDS011;46848;51.980;5.918;2023-08-12T13:11:42;3.75;;;1.23;;
43519;SDS011;46848;51.980;5.918;2023-08-12T13:14:07;4.35;;;1.33;;
43519;SDS011;46848;51.980;5.918;2023-08-12T13:16:33;5.35;;;1.45;;
43519;SDS011;46848;51.980;5.918;2023-08-12T13:18:58;5.20;;;1.48;;
43519;SDS011;46848;51.980;5.918;2023-08-12T13:21:25;5.18;;;1.52;;
43519;SDS011;46848;51.980;5.918;2023-08-12T13:23:51;5.40;;;1.65;;
43519;SDS011;46848;51.980;5.918;2023-08-12T13:26:16;3.83;;;1.30;;
43519;SDS011;46848;51.980;5.918;2023-08-12T13:28:43;3.83;;;1.40;;
43519;SDS011;46848;51.980;5.918;2023-08-12T13:31:08;5.65;;;1.75;;
43519;SDS011;46848;51.980;5.918;2023-08-12T13:33:34;5.32;;;1.38;;
43519;SDS011;46848;51.980;5.918;2023-08-12T13:36:00;5.85;;;1.58;;
43519;SDS011;46848;51.980;5.918;2023-08-12T13:38:25;7.05;;;1.65;;
43519;SDS011;46848;51.980;5.918;2023-08-12T13:40:51;7.45;;;1.60;;
43519;SDS011;46848;51.980;5.918;2023-08-12T13:43:16;6.45;;;1.35;;
43519;SDS011;46848;51.980;5.918;2023-08-12T13:45:42;4.45;;;1.27;;
43519;SDS011;46848;51.980;5.918;2023-08-12T13:48:07;5.43;;;1.75;;
43519;SDS011;46848;51.980;5.918;2023-08-12T13:50:33;6.55;;;1.38;;
43519;SDS011;46848;51.980;5.918;2023-08-12T13:52:59;6.85;;;1.30;;
43519;SDS011;46848;51.980;5.918;2023-08-12T13:55:25;7.50;;;1.77;;
43519;SDS011;46848;51.980;5.918;2023-08-12T13:57:51;6.32;;;1.50;;
43519;SDS011;46848;51.980;5.918;2023-08-12T14:00:17;5.28;;;2.13;;
43519;SDS011;46848;51.980;5.918;2023-08-12T14:02:43;5.88;;;1.75;;
43519;SDS011;46848;51.980;5.918;2023-08-12T14:05:10;3.53;;;1.40;;
43519;SDS011;46848;51.980;5.918;2023-08-12T14:07:36;4.28;;;1.38;;
43519;SDS011;46848;51.980;5.918;2023-08-12T14:10:02;6.47;;;2.00;;
43519;SDS011;46848;51.980;5.918;2023-08-12T14:12:28;3.92;;;1.10;;
43519;SDS011;46848;51.980;5.918;2023-08-12T14:14:54;5.78;;;1.60;;
43519;SDS011;46848;51.980;5.918;2023-08-12T14:17:19;6.38;;;1.50;;
43519;SDS011;46848;51.980;5.918;2023-08-12T14:19:48;6.97;;;1.83;;
43519;SDS011;46848;51.980;5.918;2023-08-12T14:22:14;6.25;;;1.90;;
43519;SDS011;46848;51.980;5.918;2023-08-12T14:24:39;4.65;;;1.52;;
43519;SDS011;46848;51.980;5.918;2023-08-12T14:27:05;5.28;;;1.60;;
43519;SDS011;46848;51.980;5.918;2023-08-12T14:29:31;3.42;;;1.20;;
43519;SDS011;46848;51.980;5.918;2023-08-12T14:31:56;4.90;;;1.40;;
43519;SDS011;46848;51.980;5.918;2023-08-12T14:34:23;6.55;;;1.52;;
43519;SDS011;46848;51.980;5.918;2023-08-12T14:36:48;3.95;;;1.20;;
43519;SDS011;46848;51.980;5.918;2023-08-12T14:39:14;6.32;;;1.40;;
43519;SDS011;46848;51.980;5.918;2023-08-12T14:41:40;6.70;;;1.63;;
43519;SDS011;46848;51.980;5.918;2023-08-12T14:44:05;4.90;;;1.80;;
43519;SDS011;46848;51.980;5.918;2023-08-12T14:46:31;5.50;;;1.65;;
43519;SDS011;46848;51.980;5.918;2023-08-12T14:48:56;5.15;;;1.88;;
43519;SDS011;46848;51.980;5.918;2023-08-12T14:51:22;6.88;;;1.80;;
43519;SDS011;46848;51.980;5.918;2023-08-12T14:53:48;6.10;;;1.58;;
43519;SDS011;46848;51.980;5.918;2023-08-12T14:56:14;4.32;;;1.40;;
43519;SDS011;46848;51.980;5.918;2023-08-12T14:58:40;4.90;;;1.48;;
43519;SDS011;46848;51.980;5.918;2023-08-12T15:01:06;9.13;;;1.67;;